Maersk Bering — 9VJK2 — position and weather

sailwx.info

Track history (hours):
 
Tides and Currents Weather Stations Pressure Air Temp Water Temp Dewpoint Dewpoint Depression Visibility Wind Speed Wind Dir Waves Ship Positions

Maersk Bering

Last reported at 2017-Sep-04 14:26 UTC. Time now 2017-Sep-23 07:44 UTC.
Position N 37°24' E 025°55'.
Warning: this ship's position is 18 days out of date.

Length 175 m; draft 9.6 m.

Type: Ship. MMSI: 563654000.

Date/timePositionNaut miles runAvg speedWind from/ knotsBaromVisibWave heightAir tempDewpointWater temp
2017-Sep-04 14:26N 37°24' E 025°55'512.2
2017-Sep-04 14:00N 37°29' E 025°52'20 8.5
2017-Sep-04 11:42N 37°47' E 025°42'2 8.3
2017-Sep-04 11:30N 37°48' E 025°41'255 7.3
2017-Sep-03 00:34N 41°09' E 029°03'110.9
2017-Sep-03 00:30N 41°10' E 029°04'6 8.6
2017-Sep-02 23:52N 41°15' E 029°08'3 7.0
2017-Sep-02 23:29N 41°17' E 029°07'3 5.4
2017-Sep-02 23:00N 41°19' E 029°05'7 0.8
2017-Sep-02 14:05N 41°26' E 029°01'0 1.8
2017-Sep-02 14:00N 41°26' E 029°02'1 2.8
2017-Sep-02 13:30N 41°26' E 029°03'1 0.7
2017-Sep-02 12:40N 41°26' E 029°04'33010.5
2017-Sep-01 05:17N 46°36' E 031°43'310.4
2017-Sep-01 05:00N 46°36' E 031°47'510.1
2017-Sep-01 04:30N 46°38' E 031°54'510.0
2017-Sep-01 04:00N 46°42' E 031°56'3 6.7
2017-Sep-01 03:30N 46°46' E 031°56'0 0.8
2017-Sep-01 02:58N 46°46' E 031°56'0 0.0
2017-Sep-01 02:28N 46°46' E 031°56'0 0.0
2017-Sep-01 01:58N 46°46' E 031°56'0 0.0
2017-Sep-01 01:28N 46°46' E 031°56'0 0.0
2017-Sep-01 00:58N 46°46' E 031°56'0 0.0
2017-Sep-01 00:28N 46°46' E 031°56'0 0.0
2017-Aug-31 23:58N 46°46' E 031°56'0 0.0
2017-Aug-31 23:28N 46°46' E 031°56'0 0.0
2017-Aug-31 22:58N 46°46' E 031°56'0 0.0
2017-Aug-31 22:28N 46°46' E 031°56'0 0.0
2017-Aug-31 21:58N 46°46' E 031°56'0 0.0
2017-Aug-31 21:25N 46°46' E 031°56'0 0.0
2017-Aug-31 20:58N 46°46' E 031°56'0 0.0
2017-Aug-31 20:28N 46°46' E 031°56'0 0.1
2017-Aug-31 19:58N 46°46' E 031°56'0 0.1
2017-Aug-31 19:28N 46°46' E 031°56'0 0.1
2017-Aug-31 19:00N 46°46' E 031°56'0 0.4
2017-Aug-31 18:30N 46°46' E 031°57'0 0.0
2017-Aug-31 17:58N 46°46' E 031°57'0 0.0
2017-Aug-31 17:28N 46°46' E 031°57'0 0.0
2017-Aug-31 16:58N 46°46' E 031°57'0 0.0
2017-Aug-31 16:28N 46°46' E 031°57'0 0.0
2017-Aug-31 15:58N 46°46' E 031°57'0 0.0
2017-Aug-31 15:28N 46°46' E 031°57'0 0.0
2017-Aug-31 14:58N 46°46' E 031°57'0 0.0
2017-Aug-31 14:28N 46°46' E 031°57'0 0.0
2017-Aug-31 13:58N 46°46' E 031°57'0 0.0
2017-Aug-31 13:28N 46°46' E 031°57'0 0.0
2017-Aug-31 12:58N 46°46' E 031°57'0 0.0
2017-Aug-31 12:28N 46°46' E 031°57'0 0.0
2017-Aug-31 11:58N 46°46' E 031°57'0 0.0
2017-Aug-31 11:28N 46°46' E 031°57'0 0.0
2017-Aug-31 10:58N 46°46' E 031°57'0 0.0
2017-Aug-31 10:25N 46°46' E 031°57'0 0.0
2017-Aug-31 09:58N 46°46' E 031°57'0 0.0
2017-Aug-31 09:28N 46°46' E 031°57'0 0.0
2017-Aug-31 08:58N 46°46' E 031°57'0 0.0
2017-Aug-31 08:28N 46°46' E 031°57'0 0.0
2017-Aug-31 07:58N 46°46' E 031°57'0 0.0
2017-Aug-31 07:28N 46°46' E 031°57'0 0.0
2017-Aug-31 06:58N 46°46' E 031°57'0 0.0
2017-Aug-31 06:28N 46°46' E 031°57'0 0.0
2017-Aug-31 05:58N 46°46' E 031°57'0 0.0
2017-Aug-31 05:28N 46°46' E 031°57'0 0.0
2017-Aug-31 04:58N 46°46' E 031°57'0 0.0
2017-Aug-31 04:28N 46°46' E 031°57'0 0.0
2017-Aug-31 03:58N 46°46' E 031°57'0 0.0
2017-Aug-31 03:28N 46°46' E 031°57'0 0.0
2017-Aug-31 02:58N 46°46' E 031°57'0 0.0
2017-Aug-31 02:28N 46°46' E 031°57'0 0.0
2017-Aug-31 01:58N 46°46' E 031°57'0 0.0
2017-Aug-31 01:28N 46°46' E 031°57'0 0.0
2017-Aug-31 00:58N 46°46' E 031°57'0 0.0
2017-Aug-31 00:28N 46°46' E 031°57'0 0.0
2017-Aug-30 23:52N 46°46' E 031°57'0 0.0
2017-Aug-30 23:25N 46°46' E 031°57'0 0.0
2017-Aug-30 22:58N 46°46' E 031°57'0 0.0
2017-Aug-30 22:28N 46°46' E 031°57'0 0.0
2017-Aug-30 21:58N 46°46' E 031°57'0 0.0
2017-Aug-30 21:28N 46°46' E 031°57'0 0.0
2017-Aug-30 20:52N 46°46' E 031°57'0 0.0
2017-Aug-30 20:28N 46°46' E 031°57'0 0.0
2017-Aug-30 19:58N 46°46' E 031°57'0 0.0
2017-Aug-30 19:28N 46°46' E 031°57'0 0.1
2017-Aug-30 18:58N 46°46' E 031°57'0 0.0
2017-Aug-30 18:28N 46°46' E 031°57'0 0.0
2017-Aug-30 17:58N 46°46' E 031°57'0 0.0
2017-Aug-30 17:25N 46°46' E 031°57'0 0.0
2017-Aug-30 16:58N 46°46' E 031°57'0 0.0
2017-Aug-30 16:28N 46°46' E 031°57'0 0.0
2017-Aug-30 15:58N 46°46' E 031°57'0 0.0
2017-Aug-30 15:28N 46°46' E 031°57'0 0.0
2017-Aug-30 14:58N 46°46' E 031°57'0 0.0
2017-Aug-30 14:28N 46°46' E 031°57'0 0.0
2017-Aug-30 13:58N 46°46' E 031°57'0 0.0
2017-Aug-30 13:28N 46°46' E 031°57'0 0.0
2017-Aug-30 12:58N 46°46' E 031°57'0 0.0
2017-Aug-30 12:25N 46°46' E 031°57'0 0.0
2017-Aug-30 11:58N 46°46' E 031°57'0 0.0
2017-Aug-30 11:28N 46°46' E 031°57'0 0.0
2017-Aug-30 10:58N 46°46' E 031°57'0 0.0
2017-Aug-30 10:22N 46°46' E 031°57'0 0.0
2017-Aug-30 09:55N 46°46' E 031°57'0 0.0
2017-Aug-30 09:28N 46°46' E 031°57'0 0.0
2017-Aug-30 08:58N 46°46' E 031°57'0 0.0
2017-Aug-30 08:25N 46°46' E 031°57'0 0.0
2017-Aug-30 07:58N 46°46' E 031°57'0 0.0
2017-Aug-30 07:28N 46°46' E 031°57'0 0.0
2017-Aug-30 06:58N 46°46' E 031°57'0 0.0
2017-Aug-30 06:28N 46°46' E 031°57'0 0.0
2017-Aug-30 05:58N 46°46' E 031°57'0 0.0
2017-Aug-30 05:28N 46°46' E 031°57'0 0.0
2017-Aug-30 04:55N 46°46' E 031°57'0 0.0
2017-Aug-30 04:28N 46°46' E 031°57'0 0.0
2017-Aug-30 03:55N 46°46' E 031°57'0 0.0
2017-Aug-30 03:28N 46°46' E 031°57'0 0.0
2017-Aug-30 02:58N 46°46' E 031°57'0 0.0
2017-Aug-30 02:28N 46°46' E 031°57'0 0.0
2017-Aug-30 01:58N 46°46' E 031°57'0 0.0
2017-Aug-30 01:28N 46°46' E 031°57'0 0.0
2017-Aug-30 00:58N 46°46' E 031°57'0 0.0
2017-Aug-30 00:28N 46°46' E 031°57'0 0.0
2017-Aug-29 23:58N 46°46' E 031°57'0 0.0
2017-Aug-29 23:28N 46°46' E 031°57'0 0.0
2017-Aug-29 22:58N 46°46' E 031°57'0 0.0
2017-Aug-29 22:28N 46°46' E 031°57'0 0.0
2017-Aug-29 21:58N 46°46' E 031°57'0 0.0
2017-Aug-29 21:28N 46°46' E 031°57'0 0.0
2017-Aug-29 20:58N 46°46' E 031°57'0 0.0
2017-Aug-29 20:28N 46°46' E 031°57'0 0.0
2017-Aug-29 19:58N 46°46' E 031°57'0 0.0
2017-Aug-29 19:28N 46°46' E 031°57'0 0.0
2017-Aug-29 18:58N 46°46' E 031°57'0 0.0
2017-Aug-29 18:28N 46°46' E 031°57'0 0.0
2017-Aug-29 17:58N 46°46' E 031°57'0 0.0
2017-Aug-29 17:28N 46°46' E 031°57'0 0.0
2017-Aug-29 16:55N 46°46' E 031°57'0 0.0
2017-Aug-29 16:28N 46°46' E 031°57'0 0.0
2017-Aug-29 15:58N 46°46' E 031°57'0 0.0
2017-Aug-29 15:28N 46°46' E 031°57'0 0.0
2017-Aug-29 14:58N 46°46' E 031°57'0 0.0
2017-Aug-29 14:28N 46°46' E 031°57'0 0.0
2017-Aug-29 13:58N 46°46' E 031°57'0 0.0
2017-Aug-29 13:28N 46°46' E 031°57'0 0.0
2017-Aug-29 12:58N 46°46' E 031°57'0 0.0
2017-Aug-29 12:28N 46°46' E 031°57'0 0.0
2017-Aug-29 08:25N 46°46' E 031°57'0 0.0
2017-Aug-29 06:55N 46°46' E 031°57'0 0.0
2017-Aug-29 06:22N 46°46' E 031°57'0 0.0
2017-Aug-29 05:52N 46°46' E 031°57'0 0.0
2017-Aug-29 05:19N 46°46' E 031°57'0 0.0
2017-Aug-29 04:52N 46°46' E 031°57'0 0.0
2017-Aug-29 04:28N 46°46' E 031°57'0 0.0
2017-Aug-29 03:58N 46°46' E 031°57'0 0.0
2017-Aug-29 03:28N 46°46' E 031°57'0 0.0
2017-Aug-29 01:10N 46°46' E 031°57'0 0.0
2017-Aug-29 00:58N 46°46' E 031°57'0 0.0
2017-Aug-28 23:22N 46°46' E 031°57'0 0.0
2017-Aug-28 22:58N 46°46' E 031°57'0 0.0
2017-Aug-28 22:28N 46°46' E 031°57'0 0.0
2017-Aug-28 21:58N 46°46' E 031°57'0 0.0
2017-Aug-28 21:28N 46°46' E 031°57'0 0.0
2017-Aug-28 20:58N 46°46' E 031°57'0 0.0
2017-Aug-28 20:28N 46°46' E 031°57'0 0.0
2017-Aug-28 19:58N 46°46' E 031°57'0 0.0
2017-Aug-28 19:22N 46°46' E 031°57'0 0.0
2017-Aug-28 18:58N 46°46' E 031°57'0 0.0
2017-Aug-28 18:22N 46°46' E 031°57'0 0.0
2017-Aug-28 17:52N 46°46' E 031°57'0 0.0
2017-Aug-28 17:28N 46°46' E 031°57'0 0.0
2017-Aug-28 16:58N 46°46' E 031°57'0 0.0
2017-Aug-28 16:28N 46°46' E 031°57'0 0.0
2017-Aug-28 15:58N 46°46' E 031°57'0 0.0
2017-Aug-28 15:28N 46°46' E 031°57'0 0.0
2017-Aug-28 14:58N 46°46' E 031°57'0 0.0
2017-Aug-28 14:28N 46°46' E 031°57'0 0.0
2017-Aug-28 13:58N 46°46' E 031°57'0 0.0
2017-Aug-28 13:28N 46°46' E 031°57'0 0.0
2017-Aug-28 12:58N 46°46' E 031°57'0 0.0
2017-Aug-28 05:55N 46°46' E 031°57'0 0.0
2017-Aug-28 04:04N 46°46' E 031°57'0 0.0
2017-Aug-28 03:46N 46°46' E 031°57'0 0.0
2017-Aug-28 03:25N 46°46' E 031°57'0 0.0
2017-Aug-28 02:58N 46°46' E 031°57'0 0.0
2017-Aug-28 02:25N 46°46' E 031°57'0 0.0
2017-Aug-28 01:55N 46°46' E 031°57'0 0.0
2017-Aug-28 01:28N 46°46' E 031°57'0 0.0
2017-Aug-28 00:16N 46°46' E 031°57'0 0.0
2017-Aug-27 23:58N 46°46' E 031°57'0 0.0
2017-Aug-27 22:34N 46°46' E 031°57'0 0.0
2017-Aug-27 22:13N 46°46' E 031°57'0 0.0
2017-Aug-27 21:52N 46°46' E 031°57'0 0.0
2017-Aug-27 21:19N 46°46' E 031°57'0 0.0
2017-Aug-27 20:49N 46°46' E 031°57'0 0.0
2017-Aug-27 20:28N 46°46' E 031°57'0 0.0
2017-Aug-27 19:22N 46°46' E 031°57'0 0.0
2017-Aug-27 18:58N 46°46' E 031°57'0 0.0
2017-Aug-27 18:22N 46°46' E 031°57'0 0.0
2017-Aug-27 17:55N 46°46' E 031°57'0 0.0
2017-Aug-27 17:19N 46°46' E 031°57'0 0.0
2017-Aug-27 16:58N 46°46' E 031°57'0 0.0
2017-Aug-27 16:28N 46°46' E 031°57'0 0.0
2017-Aug-27 15:55N 46°46' E 031°57'0 0.0
2017-Aug-27 15:25N 46°46' E 031°57'0 0.0
2017-Aug-27 14:58N 46°46' E 031°57'0 0.0
2017-Aug-27 14:28N 46°46' E 031°57'0 0.0
2017-Aug-27 13:58N 46°46' E 031°57'0 0.0
2017-Aug-27 13:19N 46°46' E 031°57'0 0.0
2017-Aug-27 12:58N 46°46' E 031°57'0 0.0
2017-Aug-27 12:28N 46°46' E 031°57'0 0.0
2017-Aug-27 11:52N 46°46' E 031°57'0 0.0
2017-Aug-27 11:28N 46°46' E 031°57'0 0.0
2017-Aug-27 08:10N 46°46' E 031°57'0 0.0
2017-Aug-27 07:46N 46°46' E 031°57'0 0.0
2017-Aug-27 07:22N 46°46' E 031°57'0 0.1
2017-Aug-27 07:00N 46°46' E 031°57'1 2.2
2017-Aug-27 06:30N 46°45' E 031°56'1 1.7
2017-Aug-27 05:59N 46°45' E 031°55'0 0.0
2017-Aug-27 05:26N 46°45' E 031°55'0 0.0
2017-Aug-27 04:59N 46°45' E 031°55'0 0.1
2017-Aug-27 04:31N 46°45' E 031°55'1 1.9
2017-Aug-27 04:00N 46°44' E 031°56'5 9.5
2017-Aug-27 03:30N 46°39' E 031°56'510.8
2017-Aug-27 03:00N 46°36' E 031°49'510.7
2017-Aug-27 02:30N 46°36' E 031°42'510.6
2017-Aug-27 02:01N 46°35' E 031°34'4 8.9
2017-Aug-27 01:30N 46°35' E 031°27'612.1
2017-Aug-27 01:00N 46°35' E 031°19'612.9
2017-Aug-27 00:30N 46°35' E 031°09'612.6
2017-Aug-27 00:00N 46°33' E 031°00'3 6.9
2017-Aug-26 23:30N 46°31' E 030°57'5 9.2
2017-Aug-26 23:00N 46°26' E 030°57'4 8.8
2017-Aug-26 22:30N 46°22' E 030°58'4 8.0
2017-Aug-26 22:01N 46°19' E 031°01'2 2.8
2017-Aug-26 21:26N 46°18' E 031°03'0 0.0
2017-Aug-26 20:56N 46°18' E 031°03'0 0.1
2017-Aug-26 20:26N 46°18' E 031°03'0 0.0
2017-Aug-26 19:59N 46°18' E 031°03'0 0.0
2017-Aug-26 19:17N 46°18' E 031°03'0 0.0
2017-Aug-26 18:59N 46°18' E 031°03'0 0.0
2017-Aug-26 18:29N 46°18' E 031°03'0 0.0
2017-Aug-26 17:59N 46°18' E 031°03'0 0.0
2017-Aug-26 17:11N 46°18' E 031°03'0 0.0
2017-Aug-26 15:59N 46°18' E 031°03'0 0.0
2017-Aug-26 15:29N 46°18' E 031°03'0 0.0
2017-Aug-26 14:56N 46°18' E 031°03'0 0.0
2017-Aug-26 13:35N 46°18' E 031°03'0 0.0
2017-Aug-26 12:17N 46°18' E 031°03'0 0.0
2017-Aug-26 11:53N 46°18' E 031°03'0 0.0
2017-Aug-26 11:08N 46°18' E 031°03'0 0.1
2017-Aug-26 10:59N 46°18' E 031°03'76 7.5
2017-Aug-26 00:51N 45°02' E 031°09'  
Track history (hours):
 
Tides and Currents Weather Stations Pressure Air Temp Water Temp Dewpoint Dewpoint Depression Visibility Wind Speed Wind Dir Waves Ship Positions

Maersk Bering

Last reported at 2017-Sep-04 14:26 UTC. Time now 2017-Sep-23 07:44 UTC.
Position N 37°24' E 025°55'.
Warning: this ship's position is 18 days out of date.

Length 175 m; draft 9.6 m.

Type: Ship. MMSI: 563654000.

Date/timePositionNaut miles runAvg speedWind from/ knotsBaromVisibWave heightAir tempDewpointWater temp
2017-Sep-04 14:26N 37°24' E 025°55'512.2
2017-Sep-04 14:00N 37°29' E 025°52'20 8.5
2017-Sep-04 11:42N 37°47' E 025°42'2 8.3
2017-Sep-04 11:30N 37°48' E 025°41'255 7.3
2017-Sep-03 00:34N 41°09' E 029°03'110.9
2017-Sep-03 00:30N 41°10' E 029°04'6 8.6
2017-Sep-02 23:52N 41°15' E 029°08'3 7.0
2017-Sep-02 23:29N 41°17' E 029°07'3 5.4
2017-Sep-02 23:00N 41°19' E 029°05'7 0.8
2017-Sep-02 14:05N 41°26' E 029°01'0 1.8
2017-Sep-02 14:00N 41°26' E 029°02'1 2.8
2017-Sep-02 13:30N 41°26' E 029°03'1 0.7
2017-Sep-02 12:40N 41°26' E 029°04'33010.5
2017-Sep-01 05:17N 46°36' E 031°43'310.4
2017-Sep-01 05:00N 46°36' E 031°47'510.1
2017-Sep-01 04:30N 46°38' E 031°54'510.0
2017-Sep-01 04:00N 46°42' E 031°56'3 6.7
2017-Sep-01 03:30N 46°46' E 031°56'0 0.8
2017-Sep-01 02:58N 46°46' E 031°56'0 0.0
2017-Sep-01 02:28N 46°46' E 031°56'0 0.0
2017-Sep-01 01:58N 46°46' E 031°56'0 0.0
2017-Sep-01 01:28N 46°46' E 031°56'0 0.0
2017-Sep-01 00:58N 46°46' E 031°56'0 0.0
2017-Sep-01 00:28N 46°46' E 031°56'0 0.0
2017-Aug-31 23:58N 46°46' E 031°56'0 0.0
2017-Aug-31 23:28N 46°46' E 031°56'0 0.0
2017-Aug-31 22:58N 46°46' E 031°56'0 0.0
2017-Aug-31 22:28N 46°46' E 031°56'0 0.0
2017-Aug-31 21:58N 46°46' E 031°56'0 0.0
2017-Aug-31 21:25N 46°46' E 031°56'0 0.0
2017-Aug-31 20:58N 46°46' E 031°56'0 0.0
2017-Aug-31 20:28N 46°46' E 031°56'0 0.1
2017-Aug-31 19:58N 46°46' E 031°56'0 0.1
2017-Aug-31 19:28N 46°46' E 031°56'0 0.1
2017-Aug-31 19:00N 46°46' E 031°56'0 0.4
2017-Aug-31 18:30N 46°46' E 031°57'0 0.0
2017-Aug-31 17:58N 46°46' E 031°57'0 0.0
2017-Aug-31 17:28N 46°46' E 031°57'0 0.0
2017-Aug-31 16:58N 46°46' E 031°57'0 0.0
2017-Aug-31 16:28N 46°46' E 031°57'0 0.0
2017-Aug-31 15:58N 46°46' E 031°57'0 0.0
2017-Aug-31 15:28N 46°46' E 031°57'0 0.0
2017-Aug-31 14:58N 46°46' E 031°57'0 0.0
2017-Aug-31 14:28N 46°46' E 031°57'0 0.0
2017-Aug-31 13:58N 46°46' E 031°57'0 0.0
2017-Aug-31 13:28N 46°46' E 031°57'0 0.0
2017-Aug-31 12:58N 46°46' E 031°57'0 0.0
2017-Aug-31 12:28N 46°46' E 031°57'0 0.0
2017-Aug-31 11:58N 46°46' E 031°57'0 0.0
2017-Aug-31 11:28N 46°46' E 031°57'0 0.0
2017-Aug-31 10:58N 46°46' E 031°57'0 0.0
2017-Aug-31 10:25N 46°46' E 031°57'0 0.0
2017-Aug-31 09:58N 46°46' E 031°57'0 0.0
2017-Aug-31 09:28N 46°46' E 031°57'0 0.0
2017-Aug-31 08:58N 46°46' E 031°57'0 0.0
2017-Aug-31 08:28N 46°46' E 031°57'0 0.0
2017-Aug-31 07:58N 46°46' E 031°57'0 0.0
2017-Aug-31 07:28N 46°46' E 031°57'0 0.0
2017-Aug-31 06:58N 46°46' E 031°57'0 0.0
2017-Aug-31 06:28N 46°46' E 031°57'0 0.0
2017-Aug-31 05:58N 46°46' E 031°57'0 0.0
2017-Aug-31 05:28N 46°46' E 031°57'0 0.0
2017-Aug-31 04:58N 46°46' E 031°57'0 0.0
2017-Aug-31 04:28N 46°46' E 031°57'0 0.0
2017-Aug-31 03:58N 46°46' E 031°57'0 0.0
2017-Aug-31 03:28N 46°46' E 031°57'0 0.0
2017-Aug-31 02:58N 46°46' E 031°57'0 0.0
2017-Aug-31 02:28N 46°46' E 031°57'0 0.0
2017-Aug-31 01:58N 46°46' E 031°57'0 0.0
2017-Aug-31 01:28N 46°46' E 031°57'0 0.0
2017-Aug-31 00:58N 46°46' E 031°57'0 0.0
2017-Aug-31 00:28N 46°46' E 031°57'0 0.0
2017-Aug-30 23:52N 46°46' E 031°57'0 0.0
2017-Aug-30 23:25N 46°46' E 031°57'0 0.0
2017-Aug-30 22:58N 46°46' E 031°57'0 0.0
2017-Aug-30 22:28N 46°46' E 031°57'0 0.0
2017-Aug-30 21:58N 46°46' E 031°57'0 0.0
2017-Aug-30 21:28N 46°46' E 031°57'0 0.0
2017-Aug-30 20:52N 46°46' E 031°57'0 0.0
2017-Aug-30 20:28N 46°46' E 031°57'0 0.0
2017-Aug-30 19:58N 46°46' E 031°57'0 0.0
2017-Aug-30 19:28N 46°46' E 031°57'0 0.1
2017-Aug-30 18:58N 46°46' E 031°57'0 0.0
2017-Aug-30 18:28N 46°46' E 031°57'0 0.0
2017-Aug-30 17:58N 46°46' E 031°57'0 0.0
2017-Aug-30 17:25N 46°46' E 031°57'0 0.0
2017-Aug-30 16:58N 46°46' E 031°57'0 0.0
2017-Aug-30 16:28N 46°46' E 031°57'0 0.0
2017-Aug-30 15:58N 46°46' E 031°57'0 0.0
2017-Aug-30 15:28N 46°46' E 031°57'0 0.0
2017-Aug-30 14:58N 46°46' E 031°57'0 0.0
2017-Aug-30 14:28N 46°46' E 031°57'0 0.0
2017-Aug-30 13:58N 46°46' E 031°57'0 0.0
2017-Aug-30 13:28N 46°46' E 031°57'0 0.0
2017-Aug-30 12:58N 46°46' E 031°57'0 0.0
2017-Aug-30 12:25N 46°46' E 031°57'0 0.0
2017-Aug-30 11:58N 46°46' E 031°57'0 0.0
2017-Aug-30 11:28N 46°46' E 031°57'0 0.0
2017-Aug-30 10:58N 46°46' E 031°57'0 0.0
2017-Aug-30 10:22N 46°46' E 031°57'0 0.0
2017-Aug-30 09:55N 46°46' E 031°57'0 0.0
2017-Aug-30 09:28N 46°46' E 031°57'0 0.0
2017-Aug-30 08:58N 46°46' E 031°57'0 0.0
2017-Aug-30 08:25N 46°46' E 031°57'0 0.0
2017-Aug-30 07:58N 46°46' E 031°57'0 0.0
2017-Aug-30 07:28N 46°46' E 031°57'0 0.0
2017-Aug-30 06:58N 46°46' E 031°57'0 0.0
2017-Aug-30 06:28N 46°46' E 031°57'0 0.0
2017-Aug-30 05:58N 46°46' E 031°57'0 0.0
2017-Aug-30 05:28N 46°46' E 031°57'0 0.0
2017-Aug-30 04:55N 46°46' E 031°57'0 0.0
2017-Aug-30 04:28N 46°46' E 031°57'0 0.0
2017-Aug-30 03:55N 46°46' E 031°57'0 0.0
2017-Aug-30 03:28N 46°46' E 031°57'0 0.0
2017-Aug-30 02:58N 46°46' E 031°57'0 0.0
2017-Aug-30 02:28N 46°46' E 031°57'0 0.0
2017-Aug-30 01:58N 46°46' E 031°57'0 0.0
2017-Aug-30 01:28N 46°46' E 031°57'0 0.0
2017-Aug-30 00:58N 46°46' E 031°57'0 0.0
2017-Aug-30 00:28N 46°46' E 031°57'0 0.0
2017-Aug-29 23:58N 46°46' E 031°57'0 0.0
2017-Aug-29 23:28N 46°46' E 031°57'0 0.0
2017-Aug-29 22:58N 46°46' E 031°57'0 0.0
2017-Aug-29 22:28N 46°46' E 031°57'0 0.0
2017-Aug-29 21:58N 46°46' E 031°57'0 0.0
2017-Aug-29 21:28N 46°46' E 031°57'0 0.0
2017-Aug-29 20:58N 46°46' E 031°57'0 0.0
2017-Aug-29 20:28N 46°46' E 031°57'0 0.0
2017-Aug-29 19:58N 46°46' E 031°57'0 0.0
2017-Aug-29 19:28N 46°46' E 031°57'0 0.0
2017-Aug-29 18:58N 46°46' E 031°57'0 0.0
2017-Aug-29 18:28N 46°46' E 031°57'0 0.0
2017-Aug-29 17:58N 46°46' E 031°57'0 0.0
2017-Aug-29 17:28N 46°46' E 031°57'0 0.0
2017-Aug-29 16:55N 46°46' E 031°57'0 0.0
2017-Aug-29 16:28N 46°46' E 031°57'0 0.0
2017-Aug-29 15:58N 46°46' E 031°57'0 0.0
2017-Aug-29 15:28N 46°46' E 031°57'0 0.0
2017-Aug-29 14:58N 46°46' E 031°57'0 0.0
2017-Aug-29 14:28N 46°46' E 031°57'0 0.0
2017-Aug-29 13:58N 46°46' E 031°57'0 0.0
2017-Aug-29 13:28N 46°46' E 031°57'0 0.0
2017-Aug-29 12:58N 46°46' E 031°57'0 0.0
2017-Aug-29 12:28N 46°46' E 031°57'0 0.0
2017-Aug-29 08:25N 46°46' E 031°57'0 0.0
2017-Aug-29 06:55N 46°46' E 031°57'0 0.0
2017-Aug-29 06:22N 46°46' E 031°57'0 0.0
2017-Aug-29 05:52N 46°46' E 031°57'0 0.0
2017-Aug-29 05:19N 46°46' E 031°57'0 0.0
2017-Aug-29 04:52N 46°46' E 031°57'0 0.0
2017-Aug-29 04:28N 46°46' E 031°57'0 0.0
2017-Aug-29 03:58N 46°46' E 031°57'0 0.0
2017-Aug-29 03:28N 46°46' E 031°57'0 0.0
2017-Aug-29 01:10N 46°46' E 031°57'0 0.0
2017-Aug-29 00:58N 46°46' E 031°57'0 0.0
2017-Aug-28 23:22N 46°46' E 031°57'0 0.0
2017-Aug-28 22:58N 46°46' E 031°57'0 0.0
2017-Aug-28 22:28N 46°46' E 031°57'0 0.0
2017-Aug-28 21:58N 46°46' E 031°57'0 0.0
2017-Aug-28 21:28N 46°46' E 031°57'0 0.0
2017-Aug-28 20:58N 46°46' E 031°57'0 0.0
2017-Aug-28 20:28N 46°46' E 031°57'0 0.0
2017-Aug-28 19:58N 46°46' E 031°57'0 0.0
2017-Aug-28 19:22N 46°46' E 031°57'0 0.0
2017-Aug-28 18:58N 46°46' E 031°57'0 0.0
2017-Aug-28 18:22N 46°46' E 031°57'0 0.0
2017-Aug-28 17:52N 46°46' E 031°57'0 0.0
2017-Aug-28 17:28N 46°46' E 031°57'0 0.0
2017-Aug-28 16:58N 46°46' E 031°57'0 0.0
2017-Aug-28 16:28N 46°46' E 031°57'0 0.0
2017-Aug-28 15:58N 46°46' E 031°57'0 0.0
2017-Aug-28 15:28N 46°46' E 031°57'0 0.0
2017-Aug-28 14:58N 46°46' E 031°57'0 0.0
2017-Aug-28 14:28N 46°46' E 031°57'0 0.0
2017-Aug-28 13:58N 46°46' E 031°57'0 0.0
2017-Aug-28 13:28N 46°46' E 031°57'0 0.0
2017-Aug-28 12:58N 46°46' E 031°57'0 0.0
2017-Aug-28 05:55N 46°46' E 031°57'0 0.0
2017-Aug-28 04:04N 46°46' E 031°57'0 0.0
2017-Aug-28 03:46N 46°46' E 031°57'0 0.0
2017-Aug-28 03:25N 46°46' E 031°57'0 0.0
2017-Aug-28 02:58N 46°46' E 031°57'0 0.0
2017-Aug-28 02:25N 46°46' E 031°57'0 0.0
2017-Aug-28 01:55N 46°46' E 031°57'0 0.0
2017-Aug-28 01:28N 46°46' E 031°57'0 0.0
2017-Aug-28 00:16N 46°46' E 031°57'0 0.0
2017-Aug-27 23:58N 46°46' E 031°57'0 0.0
2017-Aug-27 22:34N 46°46' E 031°57'0 0.0
2017-Aug-27 22:13N 46°46' E 031°57'0 0.0
2017-Aug-27 21:52N 46°46' E 031°57'0 0.0
2017-Aug-27 21:19N 46°46' E 031°57'0 0.0
2017-Aug-27 20:49N 46°46' E 031°57'0 0.0
2017-Aug-27 20:28N 46°46' E 031°57'0 0.0
2017-Aug-27 19:22N 46°46' E 031°57'0 0.0
2017-Aug-27 18:58N 46°46' E 031°57'0 0.0
2017-Aug-27 18:22N 46°46' E 031°57'0 0.0
2017-Aug-27 17:55N 46°46' E 031°57'0 0.0
2017-Aug-27 17:19N 46°46' E 031°57'0 0.0
2017-Aug-27 16:58N 46°46' E 031°57'0 0.0
2017-Aug-27 16:28N 46°46' E 031°57'0 0.0
2017-Aug-27 15:55N 46°46' E 031°57'0 0.0
2017-Aug-27 15:25N 46°46' E 031°57'0 0.0
2017-Aug-27 14:58N 46°46' E 031°57'0 0.0
2017-Aug-27 14:28N 46°46' E 031°57'0 0.0
2017-Aug-27 13:58N 46°46' E 031°57'0 0.0
2017-Aug-27 13:19N 46°46' E 031°57'0 0.0
2017-Aug-27 12:58N 46°46' E 031°57'0 0.0
2017-Aug-27 12:28N 46°46' E 031°57'0 0.0
2017-Aug-27 11:52N 46°46' E 031°57'0 0.0
2017-Aug-27 11:28N 46°46' E 031°57'0 0.0
2017-Aug-27 08:10N 46°46' E 031°57'0 0.0
2017-Aug-27 07:46N 46°46' E 031°57'0 0.0
2017-Aug-27 07:22N 46°46' E 031°57'0 0.1
2017-Aug-27 07:00N 46°46' E 031°57'1 2.2
2017-Aug-27 06:30N 46°45' E 031°56'1 1.7
2017-Aug-27 05:59N 46°45' E 031°55'0 0.0
2017-Aug-27 05:26N 46°45' E 031°55'0 0.0
2017-Aug-27 04:59N 46°45' E 031°55'0 0.1
2017-Aug-27 04:31N 46°45' E 031°55'1 1.9
2017-Aug-27 04:00N 46°44' E 031°56'5 9.5
2017-Aug-27 03:30N 46°39' E 031°56'510.8
2017-Aug-27 03:00N 46°36' E 031°49'510.7
2017-Aug-27 02:30N 46°36' E 031°42'510.6
2017-Aug-27 02:01N 46°35' E 031°34'4 8.9
2017-Aug-27 01:30N 46°35' E 031°27'612.1
2017-Aug-27 01:00N 46°35' E 031°19'612.9
2017-Aug-27 00:30N 46°35' E 031°09'612.6
2017-Aug-27 00:00N 46°33' E 031°00'3 6.9
2017-Aug-26 23:30N 46°31' E 030°57'5 9.2
2017-Aug-26 23:00N 46°26' E 030°57'4 8.8
2017-Aug-26 22:30N 46°22' E 030°58'4 8.0
2017-Aug-26 22:01N 46°19' E 031°01'2 2.8
2017-Aug-26 21:26N 46°18' E 031°03'0 0.0
2017-Aug-26 20:56N 46°18' E 031°03'0 0.1
2017-Aug-26 20:26N 46°18' E 031°03'0 0.0
2017-Aug-26 19:59N 46°18' E 031°03'0 0.0
2017-Aug-26 19:17N 46°18' E 031°03'0 0.0
2017-Aug-26 18:59N 46°18' E 031°03'0 0.0
2017-Aug-26 18:29N 46°18' E 031°03'0 0.0
2017-Aug-26 17:59N 46°18' E 031°03'0 0.0
2017-Aug-26 17:11N 46°18' E 031°03'0 0.0
2017-Aug-26 15:59N 46°18' E 031°03'0 0.0
2017-Aug-26 15:29N 46°18' E 031°03'0 0.0
2017-Aug-26 14:56N 46°18' E 031°03'0 0.0
2017-Aug-26 13:35N 46°18' E 031°03'0 0.0
2017-Aug-26 12:17N 46°18' E 031°03'0 0.0
2017-Aug-26 11:53N 46°18' E 031°03'0 0.0
2017-Aug-26 11:08N 46°18' E 031°03'0 0.1
2017-Aug-26 10:59N 46°18' E 031°03'76 7.5
2017-Aug-26 00:51N 45°02' E 031°09'  

Dump ship's entire track history